LFST 151230Z AUTO 34005KT 310V010 9999 SCT044 SCT052 BKN066 25/15 Q1020 NOSIG

TAF LFST 151100Z 1512/1612 VRB03KT 9999 SCT050

 

Temperature in degrees Celsius: 25
Dew Point Temperature in degrees Celsius: 15

 

http://openflyers.com/case/icingChart.php?chart=2&temperature=25&dewPoint=15